Time;durP1;ratioP1;P1;durP2;ratioP2;P2;SDS_P1;SDS_P2;PMS_P1;PMS_P2;Temp;Humidity;BMP_temperature;BMP_pressure;BME280_temperature;BME280_humidity;BME280_pressure;Samples;Min_cycle;Max_cycle;Signal;HPM_P1;HPM_P2
2023/11/17 00:00:55;;;;;;;;;;;;;;;;;;1902729;28;7092;-64
2023/11/17 00:01:53;;;;;;;;;;;;;;;;;;1902416;28;7045;-64
2023/11/17 00:02:50;;;;;;;;;;;;;;;;;;1903373;28;7045;-64
2023/11/17 00:03:48;;;;;;;;;;;;;;;;;;1903309;28;8098;-64
2023/11/17 00:04:45;;;;;;;;;;;;;;;;;;1902982;28;7013;-64
2023/11/17 00:05:43;;;;;;;;;;;;;;;;;;1903732;28;7090;-63
2023/11/17 00:06:40;;;;;;;;;;;;;;;;;;1903558;28;7119;-63
2023/11/17 00:07:38;;;;;;;;;;;;;;;;;;1904645;28;7121;-64
2023/11/17 00:08:35;;;;;;;;;;;;;;;;;;1903819;28;7025;-64
2023/11/17 00:09:33;;;;;;;;;;;;;;;;;;1902941;28;7202;-64
2023/11/17 00:10:30;;;;;;;;;;;;;;;;;;1904333;28;7029;-64
2023/11/17 00:11:28;;;;;;;;;;;;;;;;;;1904372;28;7100;-64
2023/11/17 00:12:26;;;;;;;;;;;;;;;;;;1905790;28;8050;-63
2023/11/17 00:13:23;;;;;;;;;;;;;;;;;;1905472;28;7132;-64
2023/11/17 00:14:21;;;;;;;;;;;;;;;;;;1902820;28;7009;-64
2023/11/17 00:15:18;;;;;;;;;;;;;;;;;;1904674;28;8133;-64
2023/11/17 00:16:19;;;;;;;;;;;;;;;;;;1904409;28;7128;-64
2023/11/17 00:17:17;;;;;;;;;;;;;;;;;;1904731;28;7004;-64
2023/11/17 00:18:14;;;;;;;;;;;;;;;;;;1904349;28;7379;-63
2023/11/17 00:19:12;;;;;;;;;;;;;;;;;;1904753;28;8212;-63
2023/11/17 00:20:10;;;;;;;;;;;;;;;;;;1905877;28;7021;-64
2023/11/17 00:21:07;;;;;;;;;;;;;;;;;;1901621;28;9083;-64
2023/11/17 00:22:05;;;;;;;;;;;;;;;;;;1897846;28;8006;-64
2023/11/17 00:23:03;;;;;;;;;;;;;;;;;;1904602;28;7009;-64
2023/11/17 00:24:01;;;;;;;;;;;;;;;;;;1904589;28;7058;-63
2023/11/17 00:24:58;;;;;;;;;;;;;;;;;;1905036;28;8038;-64
2023/11/17 00:25:56;;;;;;;;;;;;;;;;;;1905032;28;7127;-64
2023/11/17 00:26:53;;;;;;;;;;;;;;;;;;1905093;28;7045;-64
2023/11/17 00:27:50;;;;;;;;;;;;;;;;;;1903755;28;7095;-64
2023/11/17 00:28:48;;;;;;;;;;;;;;;;;;1904840;28;8046;-64
2023/11/17 00:29:48;;;;;;;;;;;;;;;;;;1905428;28;7009;-64
2023/11/17 00:30:45;;;;;;;;;;;;;;;;;;1904599;28;8581;-64
2023/11/17 00:31:43;;;;;;;;;;;;;;;;;;1904920;28;7327;-64
2023/11/17 00:32:40;;;;;;;;;;;;;;;;;;1903566;28;7096;-63
2023/11/17 00:33:38;;;;;;;;;;;;;;;;;;1904929;28;7021;-64
2023/11/17 00:34:35;;;;;;;;;;;;;;;;;;1904537;28;7035;-64
2023/11/17 00:35:33;;;;;;;;;;;;;;;;;;1904705;28;7005;-63
2023/11/17 00:36:31;;;;;;;;;;;;;;;;;;1904661;28;8038;-64
2023/11/17 00:37:28;;;;;;;;;;;;;;;;;;1905082;28;7150;-64
2023/11/17 00:38:28;;;;;;;;;;;;;;;;;;1902712;28;7029;-64
2023/11/17 00:39:28;;;;;;;;;;;;;;;;;;1904649;28;7009;-64
2023/11/17 00:40:25;;;;;;;;;;;;;;;;;;1905280;28;7123;-64
2023/11/17 00:41:23;;;;;;;;;;;;;;;;;;1904371;28;7088;-64
2023/11/17 00:42:27;;;;;;;;;;;;;;;;;;1903997;28;8042;-64
2023/11/17 00:43:25;;;;;;;;;;;;;;;;;;1904959;28;7312;-64
2023/11/17 00:44:23;;;;;;;;;;;;;;;;;;1904591;28;7033;-64
2023/11/17 00:45:20;;;;;;;;;;;;;;;;;;1902576;28;7104;-64
2023/11/17 00:46:17;;;;;;;;;;;;;;;;;;1904266;28;7013;-64
2023/11/17 00:47:15;;;;;;;;;;;;;;;;;;1905298;28;7065;-64
2023/11/17 00:48:13;;;;;;;;;;;;;;;;;;1905453;28;7021;-64
2023/11/17 00:49:12;;;;;;;;;;;;;;;;;;1904172;28;7128;-64
2023/11/17 00:50:11;;;;;;;;;;;;;;;;;;1903706;28;7299;-63
2023/11/17 00:51:10;;;;;;;;;;;;;;;;;;1903578;28;7041;-63
2023/11/17 00:52:07;;;;;;;;;;;;;;;;;;1904958;28;7009;-63
2023/11/17 00:53:05;;;;;;;;;;;;;;;;;;1903566;28;7203;-64
2023/11/17 00:54:04;;;;;;;;;;;;;;;;;;1904402;28;7135;-64
2023/11/17 00:55:06;;;;;;;;;;;;;;;;;;1905055;28;7129;-64
2023/11/17 00:56:10;;;;;;;;;;;;;;;;;;1904329;28;7088;-63
2023/11/17 00:57:10;;;;;;;;;;;;;;;;;;1904525;28;7130;-63
2023/11/17 00:58:08;;;;;;;;;;;;;;;;;;1904704;28;8096;-63
2023/11/17 00:59:11;;;;;;;;;;;;;;;;;;1904467;28;7133;-63
2023/11/17 01:00:13;;;;;;;;;;;;;;;;;;1904347;28;7091;-64
2023/11/17 01:01:10;;;;;;;;;;;;;;;;;;1904524;28;8038;-64
2023/11/17 01:02:08;;;;;;;;;;;;;;;;;;1904539;28;7017;-63
2023/11/17 01:03:06;;;;;;;;;;;;;;;;;;1903861;28;8104;-64
2023/11/17 01:04:04;;;;;;;;;;;;;;;;;;1905013;28;8022;-64
2023/11/17 01:05:01;;;;;;;;;;;;;;;;;;1905427;28;8204;-64
2023/11/17 01:05:59;;;;;;;;;;;;;;;;;;1903956;28;7107;-64
2023/11/17 01:06:56;;;;;;;;;;;;;;;;;;1904146;28;7079;-64
2023/11/17 01:07:56;;;;;;;;;;;;;;;;;;1903967;28;7013;-64
2023/11/17 01:08:54;;;;;;;;;;;;;;;;;;1904723;28;7116;-63
2023/11/17 01:09:51;;;;;;;;;;;;;;;;;;1904990;28;7017;-64
2023/11/17 01:10:50;;;;;;;;;;;;;;;;;;1903456;28;7092;-64
2023/11/17 01:11:47;;;;;;;;;;;;;;;;;;1904819;28;7017;-64
2023/11/17 01:12:45;;;;;;;;;;;;;;;;;;1904507;28;7107;-64
2023/11/17 01:13:42;;;;;;;;;;;;;;;;;;1904607;28;7095;-63
2023/11/17 01:14:40;;;;;;;;;;;;;;;;;;1905251;28;7100;-64
2023/11/17 01:15:37;;;;;;;;;;;;;;;;;;1904566;28;7008;-64
2023/11/17 01:16:35;;;;;;;;;;;;;;;;;;1886760;28;7045;-64
2023/11/17 01:17:33;;;;;;;;;;;;;;;;;;1889006;28;7014;-64
2023/11/17 01:18:30;;;;;;;;;;;;;;;;;;1888750;28;7017;-64
2023/11/17 01:19:28;;;;;;;;;;;;;;;;;;1889468;28;8218;-63
2023/11/17 01:20:25;;;;;;;;;;;;;;;;;;1889772;28;7131;-64
2023/11/17 01:21:24;;;;;;;;;;;;;;;;;;1889832;28;7130;-64
2023/11/17 01:22:22;;;;;;;;;;;;;;;;;;1889096;28;7017;-64
2023/11/17 01:23:19;;;;;;;;;;;;;;;;;;1889200;28;7049;-64
2023/11/17 01:24:17;;;;;;;;;;;;;;;;;;1889226;28;7109;-63
2023/11/17 01:25:14;;;;;;;;;;;;;;;;;;1889782;28;7084;-64
2023/11/17 01:26:12;;;;;;;;;;;;;;;;;;1885850;28;7014;-64
2023/11/17 01:27:09;;;;;;;;;;;;;;;;;;1888078;28;7024;-64
2023/11/17 01:28:08;;;;;;;;;;;;;;;;;;1889243;28;8022;-64
2023/11/17 01:29:06;;;;;;;;;;;;;;;;;;1888831;28;7315;-64
2023/11/17 01:30:05;;;;;;;;;;;;;;;;;;1888343;28;7016;-64
2023/11/17 01:31:04;;;;;;;;;;;;;;;;;;1889390;28;7046;-64
2023/11/17 01:32:01;;;;;;;;;;;;;;;;;;1889041;28;7044;-64
2023/11/17 01:32:59;;;;;;;;;;;;;;;;;;1889512;28;7030;-64
2023/11/17 01:33:56;;;;;;;;;;;;;;;;;;1889499;28;7040;-64
2023/11/17 01:34:54;;;;;;;;;;;;;;;;;;1889753;28;7036;-64
2023/11/17 01:35:52;;;;;;;;;;;;;;;;;;1888032;28;7017;-64
2023/11/17 01:36:51;;;;;;;;;;;;;;;;;;1889070;28;7200;-64
2023/11/17 01:37:49;;;;;;;;;;;;;;;;;;1889325;28;7093;-63
2023/11/17 01:38:48;;;;;;;;;;;;;;;;;;1888810;28;7050;-64
2023/11/17 01:39:51;;;;;;;;;;;;;;;;;;1889845;28;7095;-64
2023/11/17 01:40:48;;;;;;;;;;;;;;;;;;1888959;28;8098;-64
2023/11/17 01:41:45;;;;;;;;;;;;;;;;;;1889740;28;7026;-64
2023/11/17 01:42:44;;;;;;;;;;;;;;;;;;1889078;28;7090;-64
2023/11/17 01:43:43;;;;;;;;;;;;;;;;;;1889089;28;7074;-64
2023/11/17 01:44:40;;;;;;;;;;;;;;;;;;1889253;28;7005;-64
2023/11/17 01:45:39;;;;;;;;;;;;;;;;;;1889215;28;8191;-64
2023/11/17 01:46:37;;;;;;;;;;;;;;;;;;1889058;28;7009;-64
2023/11/17 01:47:39;;;;;;;;;;;;;;;;;;1889245;28;7010;-64
2023/11/17 01:48:38;;;;;;;;;;;;;;;;;;1890411;28;7142;-64
2023/11/17 01:49:36;;;;;;;;;;;;;;;;;;1889325;28;7037;-64
2023/11/17 01:50:35;;;;;;;;;;;;;;;;;;1889067;28;7138;-64
2023/11/17 01:51:34;;;;;;;;;;;;;;;;;;1888758;28;7072;-64
2023/11/17 01:52:33;;;;;;;;;;;;;;;;;;1888739;28;7515;-64
2023/11/17 01:53:31;;;;;;;;;;;;;;;;;;1886923;28;8079;-64
2023/11/17 01:54:29;;;;;;;;;;;;;;;;;;1889093;28;8115;-64
2023/11/17 01:55:27;;;;;;;;;;;;;;;;;;1888516;28;7116;-64
2023/11/17 01:56:25;;;;;;;;;;;;;;;;;;1888884;28;8012;-64
2023/11/17 01:57:23;;;;;;;;;;;;;;;;;;1887841;28;8119;-64
2023/11/17 01:58:20;;;;;;;;;;;;;;;;;;1889353;28;7092;-64
2023/11/17 01:59:18;;;;;;;;;;;;;;;;;;1889472;28;7348;-64
2023/11/17 02:00:16;;;;;;;;;;;;;;;;;;1888924;28;7116;-64
2023/11/17 02:01:13;;;;;;;;;;;;;;;;;;1889097;28;7012;-64
2023/11/17 02:02:11;;;;;;;;;;;;;;;;;;1889023;28;7009;-64
2023/11/17 02:03:09;;;;;;;;;;;;;;;;;;1889700;28;7010;-64
2023/11/17 02:04:08;;;;;;;;;;;;;;;;;;1889452;28;7053;-64
2023/11/17 02:05:07;;;;;;;;;;;;;;;;;;1888920;28;7076;-64
2023/11/17 02:06:21;;;;;;;;;;;;;;;;;;1881434;28;7046;-64
2023/11/17 02:07:24;;;;;;;;;;;;;;;;;;1882074;28;7013;-64
2023/11/17 02:08:32;;;;;;;;;;;;;;;;;;1887855;28;7018;-64
2023/11/17 02:09:44;;;;;;;;;;;;;;;;;;1888955;28;7128;-64
2023/11/17 02:11:00;;;;;;;;;;;;;;;;;;1888110;28;7453;-64
2023/11/17 02:12:14;;;;;;;;;;;;;;;;;;1888314;28;7069;-63
2023/11/17 02:13:25;;;;;;;;;;;;;;;;;;1889523;28;7069;-64
2023/11/17 02:14:30;;;;;;;;;;;;;;;;;;1888948;28;7137;-64
2023/11/17 02:15:34;;;;;;;;;;;;;;;;;;1888987;28;7022;-64
2023/11/17 02:16:36;;;;;;;;;;;;;;;;;;1896768;28;7029;-64
2023/11/17 02:17:35;;;;;;;;;;;;;;;;;;1896537;28;7096;-63
2023/11/17 02:18:35;;;;;;;;;;;;;;;;;;1896617;28;7072;-64
2023/11/17 02:19:38;;;;;;;;;;;;;;;;;;1896007;28;7014;-64
2023/11/17 02:20:35;;;;;;;;;;;;;;;;;;1896310;28;8023;-64
2023/11/17 02:21:34;;;;;;;;;;;;;;;;;;1896408;28;7117;-63
2023/11/17 02:22:32;;;;;;;;;;;;;;;;;;1895861;28;7009;-64
2023/11/17 02:23:31;;;;;;;;;;;;;;;;;;1896520;28;7129;-64
2023/11/17 02:24:36;;;;;;;;;;;;;;;;;;1895894;28;7014;-63
2023/11/17 02:25:55;;;;;;;;;;;;;;;;;;1896264;28;7186;-64
2023/11/17 02:27:01;;;;;;;;;;;;;;;;;;1896438;28;7045;-64
2023/11/17 02:28:12;;;;;;;;;;;;;;;;;;1897045;28;7029;-64
2023/11/17 02:29:28;;;;;;;;;;;;;;;;;;1895764;28;7021;-64
2023/11/17 02:30:30;;;;;;;;;;;;;;;;;;1896863;28;8090;-64
2023/11/17 02:31:33;;;;;;;;;;;;;;;;;;1896601;28;7016;-64
2023/11/17 02:32:38;;;;;;;;;;;;;;;;;;1895866;28;7020;-64
2023/11/17 02:33:37;;;;;;;;;;;;;;;;;;1896898;28;7146;-64
2023/11/17 02:34:34;;;;;;;;;;;;;;;;;;1895120;28;8000;-64
2023/11/17 02:35:32;;;;;;;;;;;;;;;;;;1896520;28;7009;-64
2023/11/17 02:36:32;;;;;;;;;;;;;;;;;;1896272;28;7013;-64
2023/11/17 02:37:30;;;;;;;;;;;;;;;;;;1896258;28;7335;-63
2023/11/17 02:38:27;;;;;;;;;;;;;;;;;;1896515;28;7096;-64
2023/11/17 02:39:25;;;;;;;;;;;;;;;;;;1895202;28;7444;-64
2023/11/17 02:40:23;;;;;;;;;;;;;;;;;;1895803;28;7024;-63
2023/11/17 02:41:28;;;;;;;;;;;;;;;;;;1896510;28;7088;-64
2023/11/17 02:42:28;;;;;;;;;;;;;;;;;;1897186;28;7127;-64
2023/11/17 02:43:29;;;;;;;;;;;;;;;;;;1895620;28;7009;-64
2023/11/17 02:44:28;;;;;;;;;;;;;;;;;;1896463;28;7374;-64
2023/11/17 02:45:27;;;;;;;;;;;;;;;;;;1895744;28;7100;-64
2023/11/17 02:46:26;;;;;;;;;;;;;;;;;;1895869;28;8068;-63
2023/11/17 02:47:35;;;;;;;;;;;;;;;;;;1895461;28;8050;-64
2023/11/17 02:48:36;;;;;;;;;;;;;;;;;;1896648;28;7013;-64
2023/11/17 02:49:40;;;;;;;;;;;;;;;;;;1894821;28;7017;-64
2023/11/17 02:51:03;;;;;;;;;;;;;;;;;;1895518;28;7471;-64
2023/11/17 02:52:03;;;;;;;;;;;;;;;;;;1894282;28;7065;-64
2023/11/17 02:53:23;;;;;;;;;;;;;;;;;;1896801;28;7013;-63
2023/11/17 02:54:23;;;;;;;;;;;;;;;;;;1896324;28;7030;-64
2023/11/17 02:55:21;;;;;;;;;;;;;;;;;;1896138;28;7006;-64
2023/11/17 02:56:21;;;;;;;;;;;;;;;;;;1896191;28;7141;-64
2023/11/17 02:57:24;;;;;;;;;;;;;;;;;;1895691;28;8034;-63
2023/11/17 02:58:23;;;;;;;;;;;;;;;;;;1895340;28;8135;-64
2023/11/17 02:59:21;;;;;;;;;;;;;;;;;;1896086;28;7138;-64
2023/11/17 03:00:22;;;;;;;;;;;;;;;;;;1896617;28;7128;-64
2023/11/17 03:01:20;;;;;;;;;;;;;;;;;;1896382;28;7017;-64
2023/11/17 03:02:19;;;;;;;;;;;;;;;;;;1896821;28;7012;-64
2023/11/17 03:03:23;;;;;;;;;;;;;;;;;;1894980;28;7037;-64
2023/11/17 03:04:20;;;;;;;;;;;;;;;;;;1896174;28;7092;-64
2023/11/17 03:05:18;;;;;;;;;;;;;;;;;;1896811;28;7021;-64
2023/11/17 03:06:16;;;;;;;;;;;;;;;;;;1896236;28;7018;-64
2023/11/17 03:07:15;;;;;;;;;;;;;;;;;;1896504;28;7182;-64
2023/11/17 03:08:13;;;;;;;;;;;;;;;;;;1896256;28;7408;-64
2023/11/17 03:09:13;;;;;;;;;;;;;;;;;;1897146;28;7017;-64
2023/11/17 03:10:11;;;;;;;;;;;;;;;;;;1895548;28;7196;-64
2023/11/17 03:11:10;;;;;;;;;;;;;;;;;;1896256;28;7110;-64
2023/11/17 03:12:07;;;;;;;;;;;;;;;;;;1896004;28;8038;-64
2023/11/17 03:13:06;;;;;;;;;;;;;;;;;;1896345;28;7013;-64
2023/11/17 03:14:05;;;;;;;;;;;;;;;;;;1896023;28;8020;-64
2023/11/17 03:15:04;;;;;;;;;;;;;;;;;;1896459;28;7013;-64
2023/11/17 03:16:01;;;;;;;;;;;;;;;;;;1897084;28;7024;-64
2023/11/17 03:16:59;;;;;;;;;;;;;;;;;;1896027;28;7124;-64
2023/11/17 03:17:57;;;;;;;;;;;;;;;;;;1896297;28;7033;-64
2023/11/17 03:18:55;;;;;;;;;;;;;;;;;;1894936;28;8201;-63
2023/11/17 03:19:52;;;;;;;;;;;;;;;;;;1896080;28;7048;-63
2023/11/17 03:20:50;;;;;;;;;;;;;;;;;;1896395;28;7097;-64
2023/11/17 03:21:47;;;;;;;;;;;;;;;;;;1896138;28;7764;-64
2023/11/17 03:22:45;;;;;;;;;;;;;;;;;;1896147;28;7130;-64
2023/11/17 03:23:42;;;;;;;;;;;;;;;;;;1896539;28;7154;-64
2023/11/17 03:24:41;;;;;;;;;;;;;;;;;;1895814;28;8011;-64
2023/11/17 03:25:39;;;;;;;;;;;;;;;;;;1896066;28;7120;-64
2023/11/17 03:26:36;;;;;;;;;;;;;;;;;;1896275;28;7017;-64
2023/11/17 03:27:34;;;;;;;;;;;;;;;;;;1895826;28;7061;-64
2023/11/17 03:28:32;;;;;;;;;;;;;;;;;;1896645;28;7076;-64
2023/11/17 03:29:31;;;;;;;;;;;;;;;;;;1895956;28;7142;-64
2023/11/17 03:30:29;;;;;;;;;;;;;;;;;;1897111;28;8043;-64
2023/11/17 03:31:29;;;;;;;;;;;;;;;;;;1895692;28;7009;-64
2023/11/17 03:32:28;;;;;;;;;;;;;;;;;;1896009;28;7018;-64
2023/11/17 03:33:29;;;;;;;;;;;;;;;;;;1896127;28;7041;-64
2023/11/17 03:34:31;;;;;;;;;;;;;;;;;;1896618;28;7120;-63
2023/11/17 03:35:28;;;;;;;;;;;;;;;;;;1896332;28;7101;-64
2023/11/17 03:36:26;;;;;;;;;;;;;;;;;;1896411;28;8071;-64
2023/11/17 03:37:24;;;;;;;;;;;;;;;;;;1895714;28;7092;-63
2023/11/17 03:38:21;;;;;;;;;;;;;;;;;;1895986;28;8021;-64
2023/11/17 03:39:19;;;;;;;;;;;;;;;;;;1895893;28;7009;-64
2023/11/17 03:40:17;;;;;;;;;;;;;;;;;;1894834;28;7038;-64
2023/11/17 03:41:21;;;;;;;;;;;;;;;;;;1895982;28;7105;-64
2023/11/17 03:42:18;;;;;;;;;;;;;;;;;;1895929;28;7135;-64
2023/11/17 03:43:18;;;;;;;;;;;;;;;;;;1896728;28;7093;-64
2023/11/17 03:44:16;;;;;;;;;;;;;;;;;;1897368;28;7128;-64
2023/11/17 03:45:15;;;;;;;;;;;;;;;;;;1897194;28;7080;-64
2023/11/17 03:46:13;;;;;;;;;;;;;;;;;;1897769;28;7013;-63
2023/11/17 03:47:12;;;;;;;;;;;;;;;;;;1897601;28;7201;-64
2023/11/17 03:48:09;;;;;;;;;;;;;;;;;;1897045;28;7100;-64
2023/11/17 03:49:08;;;;;;;;;;;;;;;;;;1897776;28;7013;-64
2023/11/17 03:50:06;;;;;;;;;;;;;;;;;;1897209;28;7205;-64
2023/11/17 03:51:06;;;;;;;;;;;;;;;;;;1895971;28;7017;-64
2023/11/17 03:52:04;;;;;;;;;;;;;;;;;;1897265;28;7013;-63
2023/11/17 03:53:02;;;;;;;;;;;;;;;;;;1897631;28;8066;-64
2023/11/17 03:53:59;;;;;;;;;;;;;;;;;;1897436;28;7009;-64
2023/11/17 03:55:00;;;;;;;;;;;;;;;;;;1897846;28;7026;-64
2023/11/17 03:55:58;;;;;;;;;;;;;;;;;;1897795;28;7017;-64
2023/11/17 03:56:56;;;;;;;;;;;;;;;;;;1897900;28;7021;-64
2023/11/17 03:57:55;;;;;;;;;;;;;;;;;;1896245;28;7021;-64
2023/11/17 03:58:52;;;;;;;;;;;;;;;;;;1896990;28;7014;-64
2023/11/17 03:59:53;;;;;;;;;;;;;;;;;;1896772;28;7046;-64
2023/11/17 04:00:50;;;;;;;;;;;;;;;;;;1897481;28;7005;-63
2023/11/17 04:01:49;;;;;;;;;;;;;;;;;;1898299;28;7104;-64
2023/11/17 04:02:47;;;;;;;;;;;;;;;;;;1897946;28;7030;-64
2023/11/17 04:03:46;;;;;;;;;;;;;;;;;;1896538;28;7159;-64
2023/11/17 04:04:43;;;;;;;;;;;;;;;;;;1897310;28;7129;-63
2023/11/17 04:05:41;;;;;;;;;;;;;;;;;;1897398;28;7076;-64
2023/11/17 04:06:38;;;;;;;;;;;;;;;;;;1896504;28;8006;-64
2023/11/17 04:07:36;;;;;;;;;;;;;;;;;;1897313;28;7157;-64
2023/11/17 04:08:33;;;;;;;;;;;;;;;;;;1897670;28;7029;-64
2023/11/17 04:09:31;;;;;;;;;;;;;;;;;;1897330;28;7032;-64
2023/11/17 04:10:28;;;;;;;;;;;;;;;;;;1897323;28;8091;-64
2023/11/17 04:11:26;;;;;;;;;;;;;;;;;;1897057;28;8064;-63
2023/11/17 04:12:23;;;;;;;;;;;;;;;;;;1897196;28;7124;-64
2023/11/17 04:13:24;;;;;;;;;;;;;;;;;;1898108;28;7013;-64
2023/11/17 04:14:22;;;;;;;;;;;;;;;;;;1897327;28;7046;-64
2023/11/17 04:15:20;;;;;;;;;;;;;;;;;;1897854;28;7013;-64
2023/11/17 04:16:17;;;;;;;;;;;;;;;;;;1895922;28;7168;-63
2023/11/17 04:17:15;;;;;;;;;;;;;;;;;;1897022;28;8042;-64
2023/11/17 04:18:13;;;;;;;;;;;;;;;;;;1896983;28;7013;-64
2023/11/17 04:19:10;;;;;;;;;;;;;;;;;;1897747;28;7092;-64
2023/11/17 04:20:14;;;;;;;;;;;;;;;;;;1896518;28;7227;-63
2023/11/17 04:21:13;;;;;;;;;;;;;;;;;;1896679;28;7009;-64
2023/11/17 04:22:12;;;;;;;;;;;;;;;;;;1898223;28;7306;-64
2023/11/17 04:23:10;;;;;;;;;;;;;;;;;;1896909;28;7032;-64
2023/11/17 04:24:08;;;;;;;;;;;;;;;;;;1897445;28;7009;-64
2023/11/17 04:25:05;;;;;;;;;;;;;;;;;;1897548;28;7103;-64
2023/11/17 04:26:03;;;;;;;;;;;;;;;;;;1896247;28;7092;-64
2023/11/17 04:27:00;;;;;;;;;;;;;;;;;;1893893;28;7013;-63
2023/11/17 04:27:58;;;;;;;;;;;;;;;;;;1896894;28;8078;-64
2023/11/17 04:28:55;;;;;;;;;;;;;;;;;;1897088;28;7010;-64
2023/11/17 04:29:53;;;;;;;;;;;;;;;;;;1898012;28;7032;-63
2023/11/17 04:30:51;;;;;;;;;;;;;;;;;;1898050;28;7129;-64
2023/11/17 04:31:48;;;;;;;;;;;;;;;;;;1896992;28;7113;-64
2023/11/17 04:32:46;;;;;;;;;;;;;;;;;;1896104;28;7204;-63
2023/11/17 04:33:43;;;;;;;;;;;;;;;;;;1896742;28;7061;-64
2023/11/17 04:34:41;;;;;;;;;;;;;;;;;;1897237;28;7126;-64
2023/11/17 04:35:38;;;;;;;;;;;;;;;;;;1896294;28;7025;-64
2023/11/17 04:36:37;;;;;;;;;;;;;;;;;;1898303;28;7680;-64
2023/11/17 04:37:38;;;;;;;;;;;;;;;;;;1897167;28;8759;-64
2023/11/17 04:38:35;;;;;;;;;;;;;;;;;;1896845;28;7088;-63
2023/11/17 04:39:33;;;;;;;;;;;;;;;;;;1896562;28;8082;-64
2023/11/17 04:40:31;;;;;;;;;;;;;;;;;;1896565;28;7770;-63
2023/11/17 04:41:31;;;;;;;;;;;;;;;;;;1897532;28;7109;-63
2023/11/17 04:42:29;;;;;;;;;;;;;;;;;;1896789;28;7131;-64
2023/11/17 04:43:27;;;;;;;;;;;;;;;;;;1896128;28;7025;-63
2023/11/17 04:44:24;;;;;;;;;;;;;;;;;;1897637;28;7013;-64
2023/11/17 04:45:25;;;;;;;;;;;;;;;;;;1896765;28;7092;-64
2023/11/17 04:46:23;;;;;;;;;;;;;;;;;;1896716;28;7033;-64
2023/11/17 04:47:23;;;;;;;;;;;;;;;;;;1896943;28;7013;-64
2023/11/17 04:48:20;;;;;;;;;;;;;;;;;;1896547;28;7074;-64
2023/11/17 04:49:18;;;;;;;;;;;;;;;;;;1896189;28;7012;-64
2023/11/17 04:50:15;;;;;;;;;;;;;;;;;;1896618;28;7108;-64
2023/11/17 04:51:13;;;;;;;;;;;;;;;;;;1896643;28;7005;-64
2023/11/17 04:52:11;;;;;;;;;;;;;;;;;;1896069;28;7012;-64
2023/11/17 04:53:09;;;;;;;;;;;;;;;;;;1896726;28;8089;-63
2023/11/17 04:54:06;;;;;;;;;;;;;;;;;;1896858;28;7009;-64
2023/11/17 04:55:05;;;;;;;;;;;;;;;;;;1896506;28;7155;-64
2023/11/17 04:56:05;;;;;;;;;;;;;;;;;;1896926;28;7041;-63
2023/11/17 04:57:04;;;;;;;;;;;;;;;;;;1897010;28;7138;-64
2023/11/17 04:58:03;;;;;;;;;;;;;;;;;;1896957;28;7133;-63
2023/11/17 04:59:02;;;;;;;;;;;;;;;;;;1896950;28;7009;-64
2023/11/17 05:00:03;;;;;;;;;;;;;;;;;;1896279;28;7017;-64
2023/11/17 05:01:01;;;;;;;;;;;;;;;;;;1896759;28;8048;-63
2023/11/17 05:01:58;;;;;;;;;;;;;;;;;;1897161;28;7006;-63
2023/11/17 05:02:57;;;;;;;;;;;;;;;;;;1897247;28;8949;-64
2023/11/17 05:03:54;;;;;;;;;;;;;;;;;;1896951;28;8020;-64
2023/11/17 05:04:52;;;;;;;;;;;;;;;;;;1897283;28;7025;-64
2023/11/17 05:05:49;;;;;;;;;;;;;;;;;;1897184;28;8058;-63
2023/11/17 05:06:47;;;;;;;;;;;;;;;;;;1897775;28;7024;-64
2023/11/17 05:07:44;;;;;;;;;;;;;;;;;;1897869;28;7303;-64
2023/11/17 05:08:42;;;;;;;;;;;;;;;;;;1897834;28;7009;-64
2023/11/17 05:09:39;;;;;;;;;;;;;;;;;;1898141;28;7013;-63
2023/11/17 05:10:36;;;;;;;;;;;;;;;;;;1896954;28;7093;-64
2023/11/17 05:11:34;;;;;;;;;;;;;;;;;;1897215;28;7008;-64
2023/11/17 05:12:32;;;;;;;;;;;;;;;;;;1896993;28;7005;-63
2023/11/17 05:13:30;;;;;;;;;;;;;;;;;;1897579;28;7013;-64
2023/11/17 05:14:28;;;;;;;;;;;;;;;;;;1896309;28;7168;-64
2023/11/17 05:15:25;;;;;;;;;;;;;;;;;;1897006;28;7033;-64
2023/11/17 05:16:22;;;;;;;;;;;;;;;;;;1896364;28;7005;-64
2023/11/17 05:17:22;;;;;;;;;;;;;;;;;;1897208;28;7378;-64
2023/11/17 05:18:19;;;;;;;;;;;;;;;;;;1897654;28;7072;-63
2023/11/17 05:19:17;;;;;;;;;;;;;;;;;;1898430;28;7008;-63
2023/11/17 05:20:18;;;;;;;;;;;;;;;;;;1897772;28;7005;-63
2023/11/17 05:21:16;;;;;;;;;;;;;;;;;;1898115;28;8007;-64
2023/11/17 05:22:14;;;;;;;;;;;;;;;;;;1897468;28;7009;-64
2023/11/17 05:23:14;;;;;;;;;;;;;;;;;;1897215;28;8027;-64
2023/11/17 05:24:12;;;;;;;;;;;;;;;;;;1889753;28;7140;-63
2023/11/17 05:25:09;;;;;;;;;;;;;;;;;;1890045;28;7122;-64
2023/11/17 05:26:08;;;;;;;;;;;;;;;;;;1896540;28;7009;-64
2023/11/17 05:27:05;;;;;;;;;;;;;;;;;;1897200;28;7009;-63
2023/11/17 05:28:04;;;;;;;;;;;;;;;;;;1897495;28;7046;-64
2023/11/17 05:29:01;;;;;;;;;;;;;;;;;;1897583;28;8042;-64
2023/11/17 05:29:59;;;;;;;;;;;;;;;;;;1896835;28;8067;-64
2023/11/17 05:30:58;;;;;;;;;;;;;;;;;;1897633;28;7045;-63
2023/11/17 05:31:55;;;;;;;;;;;;;;;;;;1897482;28;7115;-64
2023/11/17 05:32:53;;;;;;;;;;;;;;;;;;1897715;28;7039;-64
2023/11/17 05:33:50;;;;;;;;;;;;;;;;;;1897114;28;7053;-63
2023/11/17 05:34:50;;;;;;;;;;;;;;;;;;1897449;28;8016;-63
2023/11/17 05:35:48;;;;;;;;;;;;;;;;;;1897553;28;7053;-63
2023/11/17 05:36:46;;;;;;;;;;;;;;;;;;1897124;28;8039;-64
2023/11/17 05:37:43;;;;;;;;;;;;;;;;;;1897464;28;8863;-64
2023/11/17 05:38:41;;;;;;;;;;;;;;;;;;1897186;28;7227;-63
2023/11/17 05:39:38;;;;;;;;;;;;;;;;;;1897136;28;7080;-64
2023/11/17 05:40:37;;;;;;;;;;;;;;;;;;1897344;28;7017;-63
2023/11/17 05:41:34;;;;;;;;;;;;;;;;;;1897969;28;7142;-64
2023/11/17 05:42:32;;;;;;;;;;;;;;;;;;1897325;28;8012;-64
2023/11/17 05:43:29;;;;;;;;;;;;;;;;;;1897048;28;7012;-64
2023/11/17 05:44:27;;;;;;;;;;;;;;;;;;1896516;28;7126;-64
2023/11/17 05:45:24;;;;;;;;;;;;;;;;;;1897543;28;7017;-64
2023/11/17 05:46:22;;;;;;;;;;;;;;;;;;1897169;28;7092;-64
2023/11/17 05:47:21;;;;;;;;;;;;;;;;;;1897167;28;7371;-64
2023/11/17 05:48:18;;;;;;;;;;;;;;;;;;1897630;28;7013;-63
2023/11/17 05:49:16;;;;;;;;;;;;;;;;;;1897182;28;7006;-64
2023/11/17 05:50:13;;;;;;;;;;;;;;;;;;1897341;28;7374;-64
2023/11/17 05:51:11;;;;;;;;;;;;;;;;;;1896709;28;8031;-64
2023/11/17 05:52:09;;;;;;;;;;;;;;;;;;1897015;28;7017;-64
2023/11/17 05:53:06;;;;;;;;;;;;;;;;;;1897251;28;7103;-64
2023/11/17 05:54:04;;;;;;;;;;;;;;;;;;1897564;28;7013;-64
2023/11/17 05:55:03;;;;;;;;;;;;;;;;;;1897433;28;7996;-64
2023/11/17 05:56:02;;;;;;;;;;;;;;;;;;1896956;28;7037;-64
2023/11/17 05:56:59;;;;;;;;;;;;;;;;;;1896763;28;8086;-64
2023/11/17 05:57:57;;;;;;;;;;;;;;;;;;1896479;28;7024;-63
2023/11/17 05:58:54;;;;;;;;;;;;;;;;;;1896962;28;7017;-64
2023/11/17 05:59:53;;;;;;;;;;;;;;;;;;1896879;28;7026;-64
2023/11/17 06:00:51;;;;;;;;;;;;;;;;;;1897238;28;7143;-64
2023/11/17 06:01:49;;;;;;;;;;;;;;;;;;1897213;28;7160;-64
2023/11/17 06:02:46;;;;;;;;;;;;;;;;;;1897110;28;7107;-63
2023/11/17 06:03:45;;;;;;;;;;;;;;;;;;1896548;28;7009;-64
2023/11/17 06:04:43;;;;;;;;;;;;;;;;;;1896643;28;7033;-64
2023/11/17 06:05:40;;;;;;;;;;;;;;;;;;1897559;28;8017;-64
2023/11/17 06:06:39;;;;;;;;;;;;;;;;;;1889384;28;7093;-64
2023/11/17 06:07:37;;;;;;;;;;;;;;;;;;1889364;28;7807;-64
2023/11/17 06:08:35;;;;;;;;;;;;;;;;;;1896079;28;7096;-63
2023/11/17 06:09:32;;;;;;;;;;;;;;;;;;1897231;28;7016;-64
2023/11/17 06:10:30;;;;;;;;;;;;;;;;;;1897005;28;7009;-64
2023/11/17 06:11:27;;;;;;;;;;;;;;;;;;1896924;28;7009;-63
2023/11/17 06:12:26;;;;;;;;;;;;;;;;;;1896861;28;7009;-65
2023/11/17 06:13:24;;;;;;;;;;;;;;;;;;1897677;28;7013;-64
2023/11/17 06:14:22;;;;;;;;;;;;;;;;;;1896396;28;7316;-64
2023/11/17 06:15:26;;;;;;;;;;;;;;;;;;1895829;28;7214;-64
2023/11/17 06:16:25;;;;;;;;;;;;;;;;;;1897049;28;7001;-64
2023/11/17 06:17:25;;;;;;;;;;;;;;;;;;1897797;28;7116;-64
2023/11/17 06:18:22;;;;;;;;;;;;;;;;;;1896813;28;7061;-63
2023/11/17 06:19:21;;;;;;;;;;;;;;;;;;1896913;28;8011;-64
2023/11/17 06:20:19;;;;;;;;;;;;;;;;;;1896544;28;8079;-64
2023/11/17 06:21:16;;;;;;;;;;;;;;;;;;1896253;28;7081;-64
2023/11/17 06:22:13;;;;;;;;;;;;;;;;;;1896407;28;7036;-64
2023/11/17 06:23:11;;;;;;;;;;;;;;;;;;1897255;28;7120;-64
2023/11/17 06:24:08;;;;;;;;;;;;;;;;;;1897243;28;8018;-63
2023/11/17 06:25:06;;;;;;;;;;;;;;;;;;1897038;28;7014;-64
2023/11/17 06:26:06;;;;;;;;;;;;;;;;;;1896791;28;7048;-63
2023/11/17 06:27:04;;;;;;;;;;;;;;;;;;1896929;28;7091;-64
2023/11/17 06:28:03;;;;;;;;;;;;;;;;;;1895653;28;7056;-64
2023/11/17 06:29:02;;;;;;;;;;;;;;;;;;1897096;28;8008;-64
2023/11/17 06:30:03;;;;;;;;;;;;;;;;;;1894685;28;7009;-63
2023/11/17 06:31:01;;;;;;;;;;;;;;;;;;1897065;28;8012;-64
2023/11/17 06:31:58;;;;;;;;;;;;;;;;;;1897986;28;7021;-63
2023/11/17 06:32:56;;;;;;;;;;;;;;;;;;1897008;28;7013;-63
2023/11/17 06:33:53;;;;;;;;;;;;;;;;;;1896859;28;7419;-64
2023/11/17 06:34:51;;;;;;;;;;;;;;;;;;1895537;28;7048;-63
2023/11/17 06:35:49;;;;;;;;;;;;;;;;;;1896516;28;7092;-64
2023/11/17 06:36:46;;;;;;;;;;;;;;;;;;1896854;28;7024;-64
2023/11/17 06:37:44;;;;;;;;;;;;;;;;;;1897650;28;7121;-64
2023/11/17 06:38:45;;;;;;;;;;;;;;;;;;1897271;28;7049;-64
2023/11/17 06:39:43;;;;;;;;;;;;;;;;;;1897032;28;7003;-64
2023/11/17 06:40:40;;;;;;;;;;;;;;;;;;1897309;28;7013;-64
2023/11/17 06:41:38;;;;;;;;;;;;;;;;;;1896552;28;7045;-63
2023/11/17 06:42:36;;;;;;;;;;;;;;;;;;1896448;28;7091;-64
2023/11/17 06:43:33;;;;;;;;;;;;;;;;;;1897056;28;7138;-64
2023/11/17 06:44:31;;;;;;;;;;;;;;;;;;1896577;28;8042;-63
2023/11/17 06:45:28;;;;;;;;;;;;;;;;;;1897138;28;7144;-64
2023/11/17 06:46:26;;;;;;;;;;;;;;;;;;1897144;28;7117;-64
2023/11/17 06:47:23;;;;;;;;;;;;;;;;;;1896565;28;7020;-64
2023/11/17 06:48:21;;;;;;;;;;;;;;;;;;1896592;28;8027;-64
2023/11/17 06:49:20;;;;;;;;;;;;;;;;;;1895827;28;7050;-64